SLAM weather

Arampampa Airport
Gral. Ballivian, Potosí Department, Bolivia

Public forecast

Using degrees Celsius for public forecast. Weather courtesy of forecast.io.

METAR (pilot weather report)

Closest report is Jorge Wilsterman International Airport, 28.1 nm (52.0 km) N. Retrieved 2019/03/22 06:00 UTC (42 minutes ago):

SLCB 220600Z 26003KT 9999 SCT027 BKN070 16/12 Q1023

TAF (pilot weather forecast)

Forecast is more than 6 hours old.

Closest forecast is Jorge Wilsterman International Airport, 28.1 nm (52.0 km) N. Retrieved 2019/03/21 18:54 UTC (12 hours ago):

TAF SLCB 211650Z 2118/2218 26010KT 9999 SCT033 FEW036CB TX27/2119Z TN11/2210Z TEMPO 2118/2121 14010KT BECMG 2202/2204 00000KT FEW027